sensor_id;sensor_type;location;lat;lon;timestamp;temperature;humidity
4354;DHT22;11018;51.258;6.806;2023-05-07T00:00:20;15.20;99.90
4354;DHT22;11018;51.258;6.806;2023-05-07T00:02:46;15.20;99.90
4354;DHT22;11018;51.258;6.806;2023-05-07T00:05:11;15.20;99.90
4354;DHT22;11018;51.258;6.806;2023-05-07T00:07:37;15.20;99.90
4354;DHT22;11018;51.258;6.806;2023-05-07T00:10:04;15.20;99.90
4354;DHT22;11018;51.258;6.806;2023-05-07T00:12:29;15.20;99.90
4354;DHT22;11018;51.258;6.806;2023-05-07T00:15:00;15.30;99.90
4354;DHT22;11018;51.258;6.806;2023-05-07T00:17:25;15.40;99.90
4354;DHT22;11018;51.258;6.806;2023-05-07T00:19:51;15.40;99.90
4354;DHT22;11018;51.258;6.806;2023-05-07T00:22:16;15.40;99.90
4354;DHT22;11018;51.258;6.806;2023-05-07T00:24:42;15.30;99.90
4354;DHT22;11018;51.258;6.806;2023-05-07T00:27:08;15.40;99.90
4354;DHT22;11018;51.258;6.806;2023-05-07T00:29:34;15.70;98.50
4354;DHT22;11018;51.258;6.806;2023-05-07T00:31:59;15.90;93.40
4354;DHT22;11018;51.258;6.806;2023-05-07T00:34:25;15.80;92.60
4354;DHT22;11018;51.258;6.806;2023-05-07T00:36:50;15.50;96.20
4354;DHT22;11018;51.258;6.806;2023-05-07T00:39:16;15.50;99.00
4354;DHT22;11018;51.258;6.806;2023-05-07T00:41:41;15.40;99.90
4354;DHT22;11018;51.258;6.806;2023-05-07T00:44:07;15.30;99.90
4354;DHT22;11018;51.258;6.806;2023-05-07T00:46:32;15.10;99.90
4354;DHT22;11018;51.258;6.806;2023-05-07T00:48:59;15.00;99.90
4354;DHT22;11018;51.258;6.806;2023-05-07T00:51:25;14.90;99.90
4354;DHT22;11018;51.258;6.806;2023-05-07T00:53:53;14.90;99.90
4354;DHT22;11018;51.258;6.806;2023-05-07T00:56:20;14.90;99.90
4354;DHT22;11018;51.258;6.806;2023-05-07T00:58:46;14.90;99.90
4354;DHT22;11018;51.258;6.806;2023-05-07T01:01:11;15.00;99.90
4354;DHT22;11018;51.258;6.806;2023-05-07T01:03:37;14.90;99.90
4354;DHT22;11018;51.258;6.806;2023-05-07T01:06:03;14.90;99.90
4354;DHT22;11018;51.258;6.806;2023-05-07T01:08:31;14.80;99.90
4354;DHT22;11018;51.258;6.806;2023-05-07T01:10:57;14.80;99.90
4354;DHT22;11018;51.258;6.806;2023-05-07T01:13:24;14.80;99.90
4354;DHT22;11018;51.258;6.806;2023-05-07T01:15:50;14.80;99.90
4354;DHT22;11018;51.258;6.806;2023-05-07T01:18:15;14.70;99.90
4354;DHT22;11018;51.258;6.806;2023-05-07T01:20:42;14.70;99.90
4354;DHT22;11018;51.258;6.806;2023-05-07T01:23:08;14.70;99.90
4354;DHT22;11018;51.258;6.806;2023-05-07T01:25:34;14.70;99.90
4354;DHT22;11018;51.258;6.806;2023-05-07T01:28:00;14.70;99.90
4354;DHT22;11018;51.258;6.806;2023-05-07T01:30:27;14.60;99.90
4354;DHT22;11018;51.258;6.806;2023-05-07T01:32:58;14.60;99.90
4354;DHT22;11018;51.258;6.806;2023-05-07T01:35:30;14.50;99.90
4354;DHT22;11018;51.258;6.806;2023-05-07T01:37:57;14.40;99.90
4354;DHT22;11018;51.258;6.806;2023-05-07T01:40:24;14.40;99.90
4354;DHT22;11018;51.258;6.806;2023-05-07T01:42:50;14.40;99.90
4354;DHT22;11018;51.258;6.806;2023-05-07T01:45:16;14.40;99.90
4354;DHT22;11018;51.258;6.806;2023-05-07T01:47:42;14.40;99.90
4354;DHT22;11018;51.258;6.806;2023-05-07T01:50:09;14.40;99.90
4354;DHT22;11018;51.258;6.806;2023-05-07T01:52:37;14.40;99.90
4354;DHT22;11018;51.258;6.806;2023-05-07T01:55:03;14.30;99.90
4354;DHT22;11018;51.258;6.806;2023-05-07T01:57:29;14.60;99.90
4354;DHT22;11018;51.258;6.806;2023-05-07T01:59:54;14.50;99.90
4354;DHT22;11018;51.258;6.806;2023-05-07T02:02:20;14.40;99.90
4354;DHT22;11018;51.258;6.806;2023-05-07T02:04:45;14.30;99.90
4354;DHT22;11018;51.258;6.806;2023-05-07T02:07:11;14.20;99.90
4354;DHT22;11018;51.258;6.806;2023-05-07T02:09:37;14.10;99.90
4354;DHT22;11018;51.258;6.806;2023-05-07T02:12:03;14.10;99.90
4354;DHT22;11018;51.258;6.806;2023-05-07T02:14:29;14.00;99.90
4354;DHT22;11018;51.258;6.806;2023-05-07T02:16:54;13.90;99.90
4354;DHT22;11018;51.258;6.806;2023-05-07T02:19:20;13.80;99.90
4354;DHT22;11018;51.258;6.806;2023-05-07T02:21:46;13.90;99.90
4354;DHT22;11018;51.258;6.806;2023-05-07T02:24:13;14.00;99.90
4354;DHT22;11018;51.258;6.806;2023-05-07T02:26:39;14.10;99.90
4354;DHT22;11018;51.258;6.806;2023-05-07T02:29:05;14.00;99.90
4354;DHT22;11018;51.258;6.806;2023-05-07T02:31:30;14.20;99.90
4354;DHT22;11018;51.258;6.806;2023-05-07T02:33:56;14.30;99.90
4354;DHT22;11018;51.258;6.806;2023-05-07T02:36:22;14.20;99.90
4354;DHT22;11018;51.258;6.806;2023-05-07T02:38:47;14.30;99.90
4354;DHT22;11018;51.258;6.806;2023-05-07T02:41:13;14.20;99.90
4354;DHT22;11018;51.258;6.806;2023-05-07T02:43:38;14.00;99.90
4354;DHT22;11018;51.258;6.806;2023-05-07T02:46:05;13.90;99.90
4354;DHT22;11018;51.258;6.806;2023-05-07T02:48:32;13.80;99.90
4354;DHT22;11018;51.258;6.806;2023-05-07T02:50:58;13.70;99.90
4354;DHT22;11018;51.258;6.806;2023-05-07T02:53:24;13.80;99.90
4354;DHT22;11018;51.258;6.806;2023-05-07T02:55:56;13.80;99.90
4354;DHT22;11018;51.258;6.806;2023-05-07T02:58:22;13.90;99.90
4354;DHT22;11018;51.258;6.806;2023-05-07T03:00:48;13.70;99.90
4354;DHT22;11018;51.258;6.806;2023-05-07T03:03:14;13.70;99.90
4354;DHT22;11018;51.258;6.806;2023-05-07T03:05:40;13.60;99.90
4354;DHT22;11018;51.258;6.806;2023-05-07T03:08:06;13.60;99.90
4354;DHT22;11018;51.258;6.806;2023-05-07T03:10:32;13.60;99.90
4354;DHT22;11018;51.258;6.806;2023-05-07T03:12:57;13.50;99.90
4354;DHT22;11018;51.258;6.806;2023-05-07T03:15:23;13.50;99.90
4354;DHT22;11018;51.258;6.806;2023-05-07T03:17:48;13.50;99.90
4354;DHT22;11018;51.258;6.806;2023-05-07T03:20:14;13.50;99.90
4354;DHT22;11018;51.258;6.806;2023-05-07T03:22:40;13.60;99.90
4354;DHT22;11018;51.258;6.806;2023-05-07T03:25:06;13.60;99.90
4354;DHT22;11018;51.258;6.806;2023-05-07T03:27:32;13.60;99.90
4354;DHT22;11018;51.258;6.806;2023-05-07T03:29:58;13.60;99.90
4354;DHT22;11018;51.258;6.806;2023-05-07T03:32:23;13.60;99.90
4354;DHT22;11018;51.258;6.806;2023-05-07T03:34:49;13.60;99.90
4354;DHT22;11018;51.258;6.806;2023-05-07T03:37:14;13.60;99.90
4354;DHT22;11018;51.258;6.806;2023-05-07T03:39:40;13.60;99.90
4354;DHT22;11018;51.258;6.806;2023-05-07T03:42:06;13.60;99.90
4354;DHT22;11018;51.258;6.806;2023-05-07T03:44:31;13.60;99.90
4354;DHT22;11018;51.258;6.806;2023-05-07T03:46:57;13.60;99.90
4354;DHT22;11018;51.258;6.806;2023-05-07T03:49:22;13.80;99.90
4354;DHT22;11018;51.258;6.806;2023-05-07T03:51:48;13.90;99.90
4354;DHT22;11018;51.258;6.806;2023-05-07T03:54:13;14.00;99.90
4354;DHT22;11018;51.258;6.806;2023-05-07T03:56:39;14.20;99.90
4354;DHT22;11018;51.258;6.806;2023-05-07T03:59:04;14.20;99.90
4354;DHT22;11018;51.258;6.806;2023-05-07T04:01:30;14.00;99.90
4354;DHT22;11018;51.258;6.806;2023-05-07T04:03:55;13.90;99.90
4354;DHT22;11018;51.258;6.806;2023-05-07T04:06:21;13.90;99.90
4354;DHT22;11018;51.258;6.806;2023-05-07T04:08:46;13.90;99.90
4354;DHT22;11018;51.258;6.806;2023-05-07T04:11:12;13.90;99.90
4354;DHT22;11018;51.258;6.806;2023-05-07T04:13:37;13.90;99.90
4354;DHT22;11018;51.258;6.806;2023-05-07T04:16:04;14.00;99.90
4354;DHT22;11018;51.258;6.806;2023-05-07T04:18:30;14.10;99.90
4354;DHT22;11018;51.258;6.806;2023-05-07T04:20:56;14.10;99.90
4354;DHT22;11018;51.258;6.806;2023-05-07T04:23:21;14.20;99.90
4354;DHT22;11018;51.258;6.806;2023-05-07T04:25:47;14.20;99.90
4354;DHT22;11018;51.258;6.806;2023-05-07T04:28:13;14.20;99.90
4354;DHT22;11018;51.258;6.806;2023-05-07T04:30:39;14.20;99.90
4354;DHT22;11018;51.258;6.806;2023-05-07T04:33:04;14.30;99.90
4354;DHT22;11018;51.258;6.806;2023-05-07T04:35:32;14.40;99.90
4354;DHT22;11018;51.258;6.806;2023-05-07T04:37:57;14.50;99.90
4354;DHT22;11018;51.258;6.806;2023-05-07T04:40:23;14.70;99.90
4354;DHT22;11018;51.258;6.806;2023-05-07T04:42:48;14.90;94.50
4354;DHT22;11018;51.258;6.806;2023-05-07T04:45:14;15.20;90.00
4354;DHT22;11018;51.258;6.806;2023-05-07T04:47:40;15.30;87.20
4354;DHT22;11018;51.258;6.806;2023-05-07T04:50:09;15.30;87.10
4354;DHT22;11018;51.258;6.806;2023-05-07T04:52:34;15.40;85.40
4354;DHT22;11018;51.258;6.806;2023-05-07T04:55:00;15.20;87.70
4354;DHT22;11018;51.258;6.806;2023-05-07T04:57:26;15.10;89.90
4354;DHT22;11018;51.258;6.806;2023-05-07T04:59:53;15.10;91.40
4354;DHT22;11018;51.258;6.806;2023-05-07T05:02:18;15.00;92.70
4354;DHT22;11018;51.258;6.806;2023-05-07T05:04:44;15.00;92.40
4354;DHT22;11018;51.258;6.806;2023-05-07T05:07:09;15.10;93.30
4354;DHT22;11018;51.258;6.806;2023-05-07T05:09:35;15.10;94.30
4354;DHT22;11018;51.258;6.806;2023-05-07T05:12:01;15.20;94.00
4354;DHT22;11018;51.258;6.806;2023-05-07T05:14:26;15.30;93.50
4354;DHT22;11018;51.258;6.806;2023-05-07T05:16:52;15.30;91.60
4354;DHT22;11018;51.258;6.806;2023-05-07T05:19:17;15.40;91.80
4354;DHT22;11018;51.258;6.806;2023-05-07T05:21:43;15.40;89.90
4354;DHT22;11018;51.258;6.806;2023-05-07T05:24:08;15.50;89.40
4354;DHT22;11018;51.258;6.806;2023-05-07T05:26:34;15.60;88.40
4354;DHT22;11018;51.258;6.806;2023-05-07T05:29:00;15.60;88.40
4354;DHT22;11018;51.258;6.806;2023-05-07T05:31:25;15.70;86.90
4354;DHT22;11018;51.258;6.806;2023-05-07T05:33:51;15.80;85.10
4354;DHT22;11018;51.258;6.806;2023-05-07T05:36:17;15.90;85.10
4354;DHT22;11018;51.258;6.806;2023-05-07T05:38:42;16.00;82.80
4354;DHT22;11018;51.258;6.806;2023-05-07T05:41:08;16.20;79.10
4354;DHT22;11018;51.258;6.806;2023-05-07T05:43:33;16.30;78.10
4354;DHT22;11018;51.258;6.806;2023-05-07T05:45:59;16.40;76.30
4354;DHT22;11018;51.258;6.806;2023-05-07T05:48:25;16.60;74.30
4354;DHT22;11018;51.258;6.806;2023-05-07T05:50:51;16.80;71.10
4354;DHT22;11018;51.258;6.806;2023-05-07T05:53:16;16.90;69.40
4354;DHT22;11018;51.258;6.806;2023-05-07T05:55:42;17.10;66.30
4354;DHT22;11018;51.258;6.806;2023-05-07T05:58:09;17.10;65.20
4354;DHT22;11018;51.258;6.806;2023-05-07T06:00:34;17.20;66.10
4354;DHT22;11018;51.258;6.806;2023-05-07T06:03:00;17.30;66.30
4354;DHT22;11018;51.258;6.806;2023-05-07T06:05:25;17.40;65.50
4354;DHT22;11018;51.258;6.806;2023-05-07T06:07:51;17.40;60.90
4354;DHT22;11018;51.258;6.806;2023-05-07T06:10:17;17.50;60.20
4354;DHT22;11018;51.258;6.806;2023-05-07T06:12:42;17.60;59.30
4354;DHT22;11018;51.258;6.806;2023-05-07T06:15:08;17.70;57.70
4354;DHT22;11018;51.258;6.806;2023-05-07T06:17:34;17.70;57.00
4354;DHT22;11018;51.258;6.806;2023-05-07T06:20:00;17.90;52.60
4354;DHT22;11018;51.258;6.806;2023-05-07T06:22:25;17.90;54.20
4354;DHT22;11018;51.258;6.806;2023-05-07T06:24:51;17.90;53.00
4354;DHT22;11018;51.258;6.806;2023-05-07T06:27:16;17.90;53.40
4354;DHT22;11018;51.258;6.806;2023-05-07T06:29:42;17.90;51.30
4354;DHT22;11018;51.258;6.806;2023-05-07T06:32:08;18.00;48.70
4354;DHT22;11018;51.258;6.806;2023-05-07T06:34:34;18.10;48.90
4354;DHT22;11018;51.258;6.806;2023-05-07T06:37:00;18.30;48.00
4354;DHT22;11018;51.258;6.806;2023-05-07T06:39:25;18.50;44.10
4354;DHT22;11018;51.258;6.806;2023-05-07T06:41:51;18.40;44.00
4354;DHT22;11018;51.258;6.806;2023-05-07T06:44:16;18.50;44.10
4354;DHT22;11018;51.258;6.806;2023-05-07T06:46:42;18.70;42.40
4354;DHT22;11018;51.258;6.806;2023-05-07T06:49:07;18.80;42.10
4354;DHT22;11018;51.258;6.806;2023-05-07T06:51:33;18.80;41.20
4354;DHT22;11018;51.258;6.806;2023-05-07T06:53:59;19.00;39.30
4354;DHT22;11018;51.258;6.806;2023-05-07T06:56:24;19.20;38.20
4354;DHT22;11018;51.258;6.806;2023-05-07T06:58:50;19.30;36.20
4354;DHT22;11018;51.258;6.806;2023-05-07T07:01:16;19.40;35.60
4354;DHT22;11018;51.258;6.806;2023-05-07T07:03:41;19.40;35.40
4354;DHT22;11018;51.258;6.806;2023-05-07T07:06:07;19.50;33.90
4354;DHT22;11018;51.258;6.806;2023-05-07T07:08:32;19.50;35.20
4354;DHT22;11018;51.258;6.806;2023-05-07T07:10:58;19.60;35.40
4354;DHT22;11018;51.258;6.806;2023-05-07T07:13:24;19.80;34.70
4354;DHT22;11018;51.258;6.806;2023-05-07T07:15:49;19.90;34.00
4354;DHT22;11018;51.258;6.806;2023-05-07T07:18:15;20.00;33.70
4354;DHT22;11018;51.258;6.806;2023-05-07T07:20:40;20.10;31.30
4354;DHT22;11018;51.258;6.806;2023-05-07T07:23:06;20.10;31.70
4354;DHT22;11018;51.258;6.806;2023-05-07T07:25:32;20.20;31.40
4354;DHT22;11018;51.258;6.806;2023-05-07T07:27:57;20.00;30.00
4354;DHT22;11018;51.258;6.806;2023-05-07T07:30:23;19.90;30.70
4354;DHT22;11018;51.258;6.806;2023-05-07T07:32:48;19.90;30.50
4354;DHT22;11018;51.258;6.806;2023-05-07T07:35:14;20.00;31.50
4354;DHT22;11018;51.258;6.806;2023-05-07T07:37:40;20.00;31.50
4354;DHT22;11018;51.258;6.806;2023-05-07T07:40:06;20.10;31.10
4354;DHT22;11018;51.258;6.806;2023-05-07T07:42:31;20.20;30.80
4354;DHT22;11018;51.258;6.806;2023-05-07T07:44:57;20.10;31.50
4354;DHT22;11018;51.258;6.806;2023-05-07T07:47:23;20.20;32.10
4354;DHT22;11018;51.258;6.806;2023-05-07T07:49:48;20.30;31.80
4354;DHT22;11018;51.258;6.806;2023-05-07T07:52:14;20.30;31.10
4354;DHT22;11018;51.258;6.806;2023-05-07T07:54:39;20.20;31.60
4354;DHT22;11018;51.258;6.806;2023-05-07T07:57:05;20.30;31.10
4354;DHT22;11018;51.258;6.806;2023-05-07T07:59:30;20.40;31.40
4354;DHT22;11018;51.258;6.806;2023-05-07T08:01:56;20.60;30.40
4354;DHT22;11018;51.258;6.806;2023-05-07T08:04:22;20.70;30.30
4354;DHT22;11018;51.258;6.806;2023-05-07T08:06:48;20.90;28.70
4354;DHT22;11018;51.258;6.806;2023-05-07T08:09:13;20.90;28.80
4354;DHT22;11018;51.258;6.806;2023-05-07T08:11:39;21.20;28.10
4354;DHT22;11018;51.258;6.806;2023-05-07T08:14:05;21.20;28.80
4354;DHT22;11018;51.258;6.806;2023-05-07T08:16:31;21.20;29.40
4354;DHT22;11018;51.258;6.806;2023-05-07T08:18:56;21.30;29.00
4354;DHT22;11018;51.258;6.806;2023-05-07T08:21:22;21.70;28.50
4354;DHT22;11018;51.258;6.806;2023-05-07T08:23:48;21.80;25.70
4354;DHT22;11018;51.258;6.806;2023-05-07T08:26:14;22.00;25.00
4354;DHT22;11018;51.258;6.806;2023-05-07T08:28:39;22.10;24.40
4354;DHT22;11018;51.258;6.806;2023-05-07T08:31:05;22.10;23.70
4354;DHT22;11018;51.258;6.806;2023-05-07T08:33:31;22.20;23.30
4354;DHT22;11018;51.258;6.806;2023-05-07T08:35:56;22.30;22.30
4354;DHT22;11018;51.258;6.806;2023-05-07T08:38:22;22.20;22.60
4354;DHT22;11018;51.258;6.806;2023-05-07T08:40:48;22.40;22.90
4354;DHT22;11018;51.258;6.806;2023-05-07T08:43:14;22.50;22.20
4354;DHT22;11018;51.258;6.806;2023-05-07T08:45:40;22.80;21.00
4354;DHT22;11018;51.258;6.806;2023-05-07T08:48:10;23.00;20.50
4354;DHT22;11018;51.258;6.806;2023-05-07T08:50:39;23.10;19.80
4354;DHT22;11018;51.258;6.806;2023-05-07T08:53:05;23.50;19.30
4354;DHT22;11018;51.258;6.806;2023-05-07T08:55:30;23.50;18.90
4354;DHT22;11018;51.258;6.806;2023-05-07T08:57:56;23.60;18.70
4354;DHT22;11018;51.258;6.806;2023-05-07T09:00:22;23.40;18.40
4354;DHT22;11018;51.258;6.806;2023-05-07T09:02:47;23.40;18.80
4354;DHT22;11018;51.258;6.806;2023-05-07T09:05:13;23.30;19.00
4354;DHT22;11018;51.258;6.806;2023-05-07T09:07:39;23.30;19.00
4354;DHT22;11018;51.258;6.806;2023-05-07T09:10:05;23.90;19.40
4354;DHT22;11018;51.258;6.806;2023-05-07T09:12:31;23.70;18.90
4354;DHT22;11018;51.258;6.806;2023-05-07T09:14:58;23.70;18.60
4354;DHT22;11018;51.258;6.806;2023-05-07T09:17:24;23.50;18.20
4354;DHT22;11018;51.258;6.806;2023-05-07T09:19:49;23.60;18.10
4354;DHT22;11018;51.258;6.806;2023-05-07T09:22:15;23.60;18.70
4354;DHT22;11018;51.258;6.806;2023-05-07T09:24:50;23.60;19.30
4354;DHT22;11018;51.258;6.806;2023-05-07T09:27:17;23.60;19.80
4354;DHT22;11018;51.258;6.806;2023-05-07T09:29:43;23.70;19.00
4354;DHT22;11018;51.258;6.806;2023-05-07T09:32:10;23.80;18.10
4354;DHT22;11018;51.258;6.806;2023-05-07T09:34:36;23.90;17.50
4354;DHT22;11018;51.258;6.806;2023-05-07T09:37:02;24.20;17.60
4354;DHT22;11018;51.258;6.806;2023-05-07T09:39:45;24.30;17.80
4354;DHT22;11018;51.258;6.806;2023-05-07T09:42:12;24.60;16.20
4354;DHT22;11018;51.258;6.806;2023-05-07T09:44:38;24.60;15.20
4354;DHT22;11018;51.258;6.806;2023-05-07T09:47:05;24.80;15.30
4354;DHT22;11018;51.258;6.806;2023-05-07T09:49:34;25.00;15.00
4354;DHT22;11018;51.258;6.806;2023-05-07T09:52:01;25.00;15.20
4354;DHT22;11018;51.258;6.806;2023-05-07T09:54:27;24.80;15.40
4354;DHT22;11018;51.258;6.806;2023-05-07T09:56:56;25.20;15.10
4354;DHT22;11018;51.258;6.806;2023-05-07T09:59:22;25.20;15.00
4354;DHT22;11018;51.258;6.806;2023-05-07T10:01:49;25.30;15.10
4354;DHT22;11018;51.258;6.806;2023-05-07T10:04:16;25.40;15.00
4354;DHT22;11018;51.258;6.806;2023-05-07T10:06:42;26.10;13.80
4354;DHT22;11018;51.258;6.806;2023-05-07T10:09:09;26.10;14.20
4354;DHT22;11018;51.258;6.806;2023-05-07T10:11:36;25.60;14.50
4354;DHT22;11018;51.258;6.806;2023-05-07T10:14:03;25.50;14.10
4354;DHT22;11018;51.258;6.806;2023-05-07T10:16:34;25.20;15.30
4354;DHT22;11018;51.258;6.806;2023-05-07T10:19:05;25.20;15.70
4354;DHT22;11018;51.258;6.806;2023-05-07T10:21:36;25.40;14.20
4354;DHT22;11018;51.258;6.806;2023-05-07T10:24:08;25.80;13.80
4354;DHT22;11018;51.258;6.806;2023-05-07T10:26:43;25.40;14.00
4354;DHT22;11018;51.258;6.806;2023-05-07T10:29:33;25.60;14.20
4354;DHT22;11018;51.258;6.806;2023-05-07T10:34:46;25.90;13.80
4354;DHT22;11018;51.258;6.806;2023-05-07T10:37:13;26.10;13.90
4354;DHT22;11018;51.258;6.806;2023-05-07T10:39:38;26.30;13.70
4354;DHT22;11018;51.258;6.806;2023-05-07T10:42:11;26.10;12.90
4354;DHT22;11018;51.258;6.806;2023-05-07T10:44:37;25.60;14.40
4354;DHT22;11018;51.258;6.806;2023-05-07T10:47:05;25.90;14.00
4354;DHT22;11018;51.258;6.806;2023-05-07T10:49:30;25.90;12.50
4354;DHT22;11018;51.258;6.806;2023-05-07T10:52:19;26.20;12.40
4354;DHT22;11018;51.258;6.806;2023-05-07T10:54:45;26.50;12.50
4354;DHT22;11018;51.258;6.806;2023-05-07T11:00:01;27.10;11.10
4354;DHT22;11018;51.258;6.806;2023-05-07T11:03:04;26.90;10.90
4354;DHT22;11018;51.258;6.806;2023-05-07T11:05:32;27.30;11.00
4354;DHT22;11018;51.258;6.806;2023-05-07T11:08:00;27.40;11.50
4354;DHT22;11018;51.258;6.806;2023-05-07T11:13:14;27.30;9.90
4354;DHT22;11018;51.258;6.806;2023-05-07T11:15:42;27.30;9.90
4354;DHT22;11018;51.258;6.806;2023-05-07T11:18:08;27.30;9.60
4354;DHT22;11018;51.258;6.806;2023-05-07T11:21:00;26.90;10.40
4354;DHT22;11018;51.258;6.806;2023-05-07T11:26:06;27.30;10.70
4354;DHT22;11018;51.258;6.806;2023-05-07T11:28:37;27.20;9.90
4354;DHT22;11018;51.258;6.806;2023-05-07T11:31:03;27.30;10.10
4354;DHT22;11018;51.258;6.806;2023-05-07T11:33:30;27.10;10.30
4354;DHT22;11018;51.258;6.806;2023-05-07T11:35:57;27.00;10.30
4354;DHT22;11018;51.258;6.806;2023-05-07T11:38:23;26.70;10.60
4354;DHT22;11018;51.258;6.806;2023-05-07T11:40:59;26.70;10.70
4354;DHT22;11018;51.258;6.806;2023-05-07T11:43:29;26.10;11.40
4354;DHT22;11018;51.258;6.806;2023-05-07T11:45:54;25.30;12.70
4354;DHT22;11018;51.258;6.806;2023-05-07T11:48:29;24.90;13.90
4354;DHT22;11018;51.258;6.806;2023-05-07T11:53:28;24.90;14.90
4354;DHT22;11018;51.258;6.806;2023-05-07T11:55:57;25.40;13.80
4354;DHT22;11018;51.258;6.806;2023-05-07T11:58:23;25.70;13.00
4354;DHT22;11018;51.258;6.806;2023-05-07T12:00:53;26.10;12.80
4354;DHT22;11018;51.258;6.806;2023-05-07T12:03:22;25.90;12.30
4354;DHT22;11018;51.258;6.806;2023-05-07T12:05:48;25.90;12.20
4354;DHT22;11018;51.258;6.806;2023-05-07T12:08:14;26.00;12.40
4354;DHT22;11018;51.258;6.806;2023-05-07T12:10:42;25.70;12.30
4354;DHT22;11018;51.258;6.806;2023-05-07T12:13:18;25.20;13.00
4354;DHT22;11018;51.258;6.806;2023-05-07T12:15:44;24.90;14.50
4354;DHT22;11018;51.258;6.806;2023-05-07T12:18:11;25.00;13.70
4354;DHT22;11018;51.258;6.806;2023-05-07T12:20:37;25.10;13.40
4354;DHT22;11018;51.258;6.806;2023-05-07T12:23:03;24.90;14.00
4354;DHT22;11018;51.258;6.806;2023-05-07T12:25:35;24.50;14.70
4354;DHT22;11018;51.258;6.806;2023-05-07T12:28:05;23.90;15.60
4354;DHT22;11018;51.258;6.806;2023-05-07T12:30:32;23.70;16.20
4354;DHT22;11018;51.258;6.806;2023-05-07T12:33:02;23.60;16.20
4354;DHT22;11018;51.258;6.806;2023-05-07T12:35:28;23.50;16.50
4354;DHT22;11018;51.258;6.806;2023-05-07T12:37:58;23.40;16.90
4354;DHT22;11018;51.258;6.806;2023-05-07T12:43:06;23.50;16.40
4354;DHT22;11018;51.258;6.806;2023-05-07T12:45:37;23.50;17.00
4354;DHT22;11018;51.258;6.806;2023-05-07T12:48:03;23.50;17.10
4354;DHT22;11018;51.258;6.806;2023-05-07T12:50:33;23.50;16.50
4354;DHT22;11018;51.258;6.806;2023-05-07T12:52:59;23.40;17.70
4354;DHT22;11018;51.258;6.806;2023-05-07T12:55:24;23.50;18.20
4354;DHT22;11018;51.258;6.806;2023-05-07T12:57:51;23.50;17.20
4354;DHT22;11018;51.258;6.806;2023-05-07T13:00:31;23.60;17.40
4354;DHT22;11018;51.258;6.806;2023-05-07T13:02:58;23.60;17.60
4354;DHT22;11018;51.258;6.806;2023-05-07T13:05:24;23.60;17.30
4354;DHT22;11018;51.258;6.806;2023-05-07T13:07:53;23.60;18.00
4354;DHT22;11018;51.258;6.806;2023-05-07T13:10:20;23.90;18.00
4354;DHT22;11018;51.258;6.806;2023-05-07T13:12:45;24.00;17.50
4354;DHT22;11018;51.258;6.806;2023-05-07T13:15:11;23.70;19.30
4354;DHT22;11018;51.258;6.806;2023-05-07T13:17:36;22.30;26.20
4354;DHT22;11018;51.258;6.806;2023-05-07T13:20:02;21.70;28.90
4354;DHT22;11018;51.258;6.806;2023-05-07T13:22:27;21.20;33.10
4354;DHT22;11018;51.258;6.806;2023-05-07T13:24:53;20.80;36.60
4354;DHT22;11018;51.258;6.806;2023-05-07T13:27:19;20.70;38.60
4354;DHT22;11018;51.258;6.806;2023-05-07T13:29:45;20.80;38.00
4354;DHT22;11018;51.258;6.806;2023-05-07T13:32:11;20.90;37.30
4354;DHT22;11018;51.258;6.806;2023-05-07T13:34:36;21.00;36.60
4354;DHT22;11018;51.258;6.806;2023-05-07T13:37:02;21.10;35.50
4354;DHT22;11018;51.258;6.806;2023-05-07T13:39:27;21.20;35.30
4354;DHT22;11018;51.258;6.806;2023-05-07T13:41:53;20.70;34.10
4354;DHT22;11018;51.258;6.806;2023-05-07T13:44:19;20.40;37.10
4354;DHT22;11018;51.258;6.806;2023-05-07T13:46:44;20.40;36.70
4354;DHT22;11018;51.258;6.806;2023-05-07T13:49:10;20.70;37.20
4354;DHT22;11018;51.258;6.806;2023-05-07T13:51:36;20.90;34.30
4354;DHT22;11018;51.258;6.806;2023-05-07T13:54:02;21.00;33.40
4354;DHT22;11018;51.258;6.806;2023-05-07T13:56:28;21.10;34.70
4354;DHT22;11018;51.258;6.806;2023-05-07T13:58:56;21.00;36.20
4354;DHT22;11018;51.258;6.806;2023-05-07T14:01:21;20.80;38.70
4354;DHT22;11018;51.258;6.806;2023-05-07T14:03:47;20.60;42.00
4354;DHT22;11018;51.258;6.806;2023-05-07T14:06:12;20.60;43.40
4354;DHT22;11018;51.258;6.806;2023-05-07T14:08:38;20.40;45.50
4354;DHT22;11018;51.258;6.806;2023-05-07T14:11:04;20.30;45.90
4354;DHT22;11018;51.258;6.806;2023-05-07T14:13:29;20.20;48.30
4354;DHT22;11018;51.258;6.806;2023-05-07T14:15:56;20.00;51.90
4354;DHT22;11018;51.258;6.806;2023-05-07T14:18:21;19.80;54.90
4354;DHT22;11018;51.258;6.806;2023-05-07T14:20:47;19.70;56.60
4354;DHT22;11018;51.258;6.806;2023-05-07T14:23:14;19.70;59.40
4354;DHT22;11018;51.258;6.806;2023-05-07T14:25:39;19.70;55.70
4354;DHT22;11018;51.258;6.806;2023-05-07T14:28:05;19.70;58.20
4354;DHT22;11018;51.258;6.806;2023-05-07T14:30:31;19.80;60.90
4354;DHT22;11018;51.258;6.806;2023-05-07T14:32:57;19.80;62.60
4354;DHT22;11018;51.258;6.806;2023-05-07T14:35:22;19.70;62.60
4354;DHT22;11018;51.258;6.806;2023-05-07T14:37:48;19.70;58.60
4354;DHT22;11018;51.258;6.806;2023-05-07T14:40:13;19.70;59.00
4354;DHT22;11018;51.258;6.806;2023-05-07T14:42:40;19.60;60.20
4354;DHT22;11018;51.258;6.806;2023-05-07T14:45:06;19.50;60.40
4354;DHT22;11018;51.258;6.806;2023-05-07T14:47:31;19.80;57.50
4354;DHT22;11018;51.258;6.806;2023-05-07T14:49:57;19.90;59.10
4354;DHT22;11018;51.258;6.806;2023-05-07T14:52:23;19.70;63.00
4354;DHT22;11018;51.258;6.806;2023-05-07T14:54:49;19.40;69.40
4354;DHT22;11018;51.258;6.806;2023-05-07T14:57:14;19.20;69.40
4354;DHT22;11018;51.258;6.806;2023-05-07T14:59:41;19.00;75.10
4354;DHT22;11018;51.258;6.806;2023-05-07T15:02:08;18.90;74.90
4354;DHT22;11018;51.258;6.806;2023-05-07T15:04:41;18.90;72.50
4354;DHT22;11018;51.258;6.806;2023-05-07T15:07:12;18.80;70.90
4354;DHT22;11018;51.258;6.806;2023-05-07T15:09:40;18.80;75.10
4354;DHT22;11018;51.258;6.806;2023-05-07T15:12:06;18.70;76.60
4354;DHT22;11018;51.258;6.806;2023-05-07T15:14:31;19.00;75.20
4354;DHT22;11018;51.258;6.806;2023-05-07T15:16:57;19.00;76.80
4354;DHT22;11018;51.258;6.806;2023-05-07T15:19:23;19.10;77.20
4354;DHT22;11018;51.258;6.806;2023-05-07T15:21:50;19.30;76.60
4354;DHT22;11018;51.258;6.806;2023-05-07T15:24:15;19.50;72.50
4354;DHT22;11018;51.258;6.806;2023-05-07T15:26:41;19.70;68.20
4354;DHT22;11018;51.258;6.806;2023-05-07T15:29:07;19.60;69.60
4354;DHT22;11018;51.258;6.806;2023-05-07T15:31:35;19.60;68.00
4354;DHT22;11018;51.258;6.806;2023-05-07T15:34:02;19.80;68.10
4354;DHT22;11018;51.258;6.806;2023-05-07T15:36:28;19.70;64.30
4354;DHT22;11018;51.258;6.806;2023-05-07T15:38:53;19.90;66.00
4354;DHT22;11018;51.258;6.806;2023-05-07T15:41:20;20.10;64.40
4354;DHT22;11018;51.258;6.806;2023-05-07T15:43:48;20.40;59.20
4354;DHT22;11018;51.258;6.806;2023-05-07T15:46:18;20.20;60.60
4354;DHT22;11018;51.258;6.806;2023-05-07T15:48:44;20.00;65.10
4354;DHT22;11018;51.258;6.806;2023-05-07T15:51:10;19.90;71.50
4354;DHT22;11018;51.258;6.806;2023-05-07T15:53:35;19.90;69.20
4354;DHT22;11018;51.258;6.806;2023-05-07T15:56:02;19.60;73.50
4354;DHT22;11018;51.258;6.806;2023-05-07T15:58:27;19.60;73.60